Cheyenne — 9HAK5 — position and weather

sailwx.info

Track history (hours):
 
Tides and Currents Weather Stations Pressure Air Temp Water Temp Dewpoint Dewpoint Depression Visibility Wind Speed Wind Dir Waves Ship Positions

Cheyenne

Last reported at 2017-Jan-12 04:33 UTC. Time now 2017-Jan-21 06:25 UTC.
Position N 38°05' E 026°18'.
Warning: this ship's position is 9 days out of date.

Length 133 m; draft 3.8 m.

Type: Ship. MMSI: 249607000.

Date/timePositionNaut miles runAvg speedWind from/ knotsBaromVisibWave heightAir tempDewpointWater temp
2017-Jan-12 04:33N 38°05' E 026°18'13 5.4
2017-Jan-12 02:15N 38°16' E 026°12'16 5.9
2017-Jan-11 23:33N 38°31' E 026°19'8 6.8
2017-Jan-11 22:26N 38°39' E 026°19'6 6.7
2017-Jan-11 21:32N 38°44' E 026°23'6 6.6
2017-Jan-11 20:33N 38°49' E 026°27'40 4.9
2017-Jan-11 12:22N 39°26' E 026°09'  
2017-Jan-07 12:29N 45°10' E 036°28'7 7.7
2017-Jan-07 11:33N 45°17' E 036°28'7 6.8
2017-Jan-07 10:33N 45°20' E 036°37'6 6.0
2017-Jan-07 09:33N 45°26' E 036°39'1 1.4
2017-Jan-07 08:31N 45°27' E 036°38'0 0.0
2017-Jan-07 07:31N 45°27' E 036°38'0 0.0
2017-Jan-07 06:31N 45°27' E 036°38'0 0.0
2017-Jan-07 05:28N 45°27' E 036°38'0 0.0
2017-Jan-07 04:31N 45°27' E 036°38'0 0.0
2017-Jan-07 03:31N 45°27' E 036°38'0 0.0
2017-Jan-07 02:31N 45°27' E 036°38'0 0.0
2017-Jan-07 01:31N 45°27' E 036°38'0 0.0
2017-Jan-07 00:31N 45°27' E 036°38'0 0.0
2017-Jan-06 23:31N 45°27' E 036°38'0 0.0
2017-Jan-06 22:31N 45°27' E 036°38'0 0.0
2017-Jan-06 21:31N 45°27' E 036°38'0 0.0
2017-Jan-06 20:31N 45°27' E 036°38'0 0.0
2017-Jan-06 19:31N 45°27' E 036°38'0 0.0
2017-Jan-06 18:31N 45°27' E 036°39'0 0.1
2017-Jan-06 17:31N 45°27' E 036°39'0 0.0
2017-Jan-06 16:31N 45°27' E 036°39'0 0.0
2017-Jan-06 15:31N 45°27' E 036°39'0 0.0
2017-Jan-06 14:31N 45°27' E 036°39'0 0.0
2017-Jan-06 13:25N 45°27' E 036°39'0 0.0
2017-Jan-06 12:31N 45°27' E 036°39'0 0.0
2017-Jan-06 11:31N 45°27' E 036°39'0 0.0
2017-Jan-06 10:31N 45°27' E 036°39'0 0.0
2017-Jan-06 09:31N 45°27' E 036°39'0 0.0
2017-Jan-06 08:31N 45°27' E 036°38'0 0.1
2017-Jan-06 07:31N 45°27' E 036°39'0 0.0
2017-Jan-06 06:28N 45°27' E 036°39'0 0.0
2017-Jan-06 05:31N 45°27' E 036°39'0 0.0
2017-Jan-06 04:31N 45°27' E 036°39'0 0.0
2017-Jan-06 03:31N 45°27' E 036°39'0 0.0
2017-Jan-06 02:31N 45°27' E 036°39'0 0.0
2017-Jan-06 01:31N 45°27' E 036°39'0 0.0
2017-Jan-06 00:31N 45°27' E 036°39'0 0.0
2017-Jan-05 23:31N 45°27' E 036°39'0 0.0
2017-Jan-05 22:31N 45°27' E 036°39'0 0.0
2017-Jan-05 21:28N 45°27' E 036°39'0 0.1
2017-Jan-05 20:31N 45°27' E 036°39'0 0.0
2017-Jan-05 19:31N 45°27' E 036°39'0 0.0
2017-Jan-05 18:31N 45°27' E 036°39'0 0.0
2017-Jan-05 17:31N 45°27' E 036°39'0 0.0
2017-Jan-05 16:31N 45°27' E 036°39'0 0.0
2017-Jan-05 15:31N 45°27' E 036°39'0 0.0
2017-Jan-05 14:31N 45°27' E 036°39'0 0.0
2017-Jan-05 13:31N 45°27' E 036°39'0 0.0
2017-Jan-05 12:31N 45°27' E 036°39'0 0.0
2017-Jan-05 11:31N 45°27' E 036°39'0 0.0
2017-Jan-05 10:31N 45°27' E 036°39'0 0.0
2017-Jan-05 09:31N 45°27' E 036°39'0 0.0
2017-Jan-05 08:31N 45°27' E 036°39'0 0.0
2017-Jan-05 07:31N 45°27' E 036°39'0 0.0
2017-Jan-05 02:13N 45°27' E 036°39'0 0.0
2017-Jan-04 22:28N 45°27' E 036°39'0 0.0
2017-Jan-04 21:22N 45°27' E 036°39'0 0.0
2017-Jan-04 20:25N 45°27' E 036°39'0 0.0
2017-Jan-04 19:31N 45°27' E 036°39'0 0.0
2017-Jan-04 18:28N 45°27' E 036°39'0 0.0
2017-Jan-04 17:28N 45°27' E 036°39'0 0.0
2017-Jan-04 16:16N 45°27' E 036°39'0 0.0
2017-Jan-04 15:31N 45°27' E 036°39'0 0.0
2017-Jan-04 14:31N 45°27' E 036°39'0 0.0
2017-Jan-04 13:31N 45°27' E 036°39'0 0.0
2017-Jan-04 12:28N 45°27' E 036°39'0 0.1
2017-Jan-04 11:31N 45°27' E 036°39'0 0.0
2017-Jan-04 10:28N 45°27' E 036°39'0 0.0
2017-Jan-04 09:31N 45°27' E 036°39'0 0.1
2017-Jan-04 08:31N 45°27' E 036°39'0 0.0
2017-Jan-04 07:31N 45°27' E 036°39'0 0.0
2017-Jan-04 06:31N 45°27' E 036°39'0 0.0
2017-Jan-04 05:28N 45°27' E 036°39'0 0.0
2017-Jan-04 04:31N 45°27' E 036°39'0 0.0
2017-Jan-04 03:31N 45°27' E 036°39'0 0.0
2017-Jan-04 02:31N 45°27' E 036°39'0 0.0
2017-Jan-04 01:19N 45°27' E 036°39'0 0.0
2017-Jan-04 00:07N 45°27' E 036°39'0 0.0
2017-Jan-03 23:31N 45°27' E 036°39'0 0.0
2017-Jan-03 22:31N 45°27' E 036°39'0 0.0
2017-Jan-03 21:28N 45°27' E 036°39'0 0.0
2017-Jan-03 17:04N 45°27' E 036°39'0 0.0
2017-Jan-03 16:31N 45°27' E 036°39'0 0.0
2017-Jan-03 15:31N 45°27' E 036°39'0 0.0
2017-Jan-03 14:28N 45°27' E 036°39'0 0.0
2017-Jan-03 13:31N 45°27' E 036°39'0 0.0
2017-Jan-03 12:31N 45°27' E 036°39'0 0.0
2017-Jan-03 11:31N 45°27' E 036°39'0 0.0
2017-Jan-03 10:31N 45°27' E 036°39'0 0.0
2017-Jan-03 09:31N 45°27' E 036°39'0 0.0
2017-Jan-03 08:31N 45°27' E 036°39'0 0.0
2017-Jan-03 07:31N 45°27' E 036°39'0 0.0
2017-Jan-03 06:19N 45°27' E 036°39'0 0.0
2017-Jan-03 05:31N 45°27' E 036°39'0 0.0
2017-Jan-03 04:31N 45°27' E 036°39'0 0.0
2017-Jan-03 03:13N 45°27' E 036°39'0 0.0
2017-Jan-03 02:28N 45°27' E 036°39'0 0.0
2017-Jan-03 01:22N 45°27' E 036°39'0 0.0
2017-Jan-03 00:31N 45°27' E 036°39'0 0.1
2017-Jan-02 23:33N 45°27' E 036°39'6 5.7
2017-Jan-02 22:33N 45°31' E 036°44'  
Track history (hours):
 
Tides and Currents Weather Stations Pressure Air Temp Water Temp Dewpoint Dewpoint Depression Visibility Wind Speed Wind Dir Waves Ship Positions

Cheyenne

Last reported at 2017-Jan-12 04:33 UTC. Time now 2017-Jan-21 06:25 UTC.
Position N 38°05' E 026°18'.
Warning: this ship's position is 9 days out of date.

Length 133 m; draft 3.8 m.

Type: Ship. MMSI: 249607000.

Date/timePositionNaut miles runAvg speedWind from/ knotsBaromVisibWave heightAir tempDewpointWater temp
2017-Jan-12 04:33N 38°05' E 026°18'13 5.4
2017-Jan-12 02:15N 38°16' E 026°12'16 5.9
2017-Jan-11 23:33N 38°31' E 026°19'8 6.8
2017-Jan-11 22:26N 38°39' E 026°19'6 6.7
2017-Jan-11 21:32N 38°44' E 026°23'6 6.6
2017-Jan-11 20:33N 38°49' E 026°27'40 4.9
2017-Jan-11 12:22N 39°26' E 026°09'  
2017-Jan-07 12:29N 45°10' E 036°28'7 7.7
2017-Jan-07 11:33N 45°17' E 036°28'7 6.8
2017-Jan-07 10:33N 45°20' E 036°37'6 6.0
2017-Jan-07 09:33N 45°26' E 036°39'1 1.4
2017-Jan-07 08:31N 45°27' E 036°38'0 0.0
2017-Jan-07 07:31N 45°27' E 036°38'0 0.0
2017-Jan-07 06:31N 45°27' E 036°38'0 0.0
2017-Jan-07 05:28N 45°27' E 036°38'0 0.0
2017-Jan-07 04:31N 45°27' E 036°38'0 0.0
2017-Jan-07 03:31N 45°27' E 036°38'0 0.0
2017-Jan-07 02:31N 45°27' E 036°38'0 0.0
2017-Jan-07 01:31N 45°27' E 036°38'0 0.0
2017-Jan-07 00:31N 45°27' E 036°38'0 0.0
2017-Jan-06 23:31N 45°27' E 036°38'0 0.0
2017-Jan-06 22:31N 45°27' E 036°38'0 0.0
2017-Jan-06 21:31N 45°27' E 036°38'0 0.0
2017-Jan-06 20:31N 45°27' E 036°38'0 0.0
2017-Jan-06 19:31N 45°27' E 036°38'0 0.0
2017-Jan-06 18:31N 45°27' E 036°39'0 0.1
2017-Jan-06 17:31N 45°27' E 036°39'0 0.0
2017-Jan-06 16:31N 45°27' E 036°39'0 0.0
2017-Jan-06 15:31N 45°27' E 036°39'0 0.0
2017-Jan-06 14:31N 45°27' E 036°39'0 0.0
2017-Jan-06 13:25N 45°27' E 036°39'0 0.0
2017-Jan-06 12:31N 45°27' E 036°39'0 0.0
2017-Jan-06 11:31N 45°27' E 036°39'0 0.0
2017-Jan-06 10:31N 45°27' E 036°39'0 0.0
2017-Jan-06 09:31N 45°27' E 036°39'0 0.0
2017-Jan-06 08:31N 45°27' E 036°38'0 0.1
2017-Jan-06 07:31N 45°27' E 036°39'0 0.0
2017-Jan-06 06:28N 45°27' E 036°39'0 0.0
2017-Jan-06 05:31N 45°27' E 036°39'0 0.0
2017-Jan-06 04:31N 45°27' E 036°39'0 0.0
2017-Jan-06 03:31N 45°27' E 036°39'0 0.0
2017-Jan-06 02:31N 45°27' E 036°39'0 0.0
2017-Jan-06 01:31N 45°27' E 036°39'0 0.0
2017-Jan-06 00:31N 45°27' E 036°39'0 0.0
2017-Jan-05 23:31N 45°27' E 036°39'0 0.0
2017-Jan-05 22:31N 45°27' E 036°39'0 0.0
2017-Jan-05 21:28N 45°27' E 036°39'0 0.1
2017-Jan-05 20:31N 45°27' E 036°39'0 0.0
2017-Jan-05 19:31N 45°27' E 036°39'0 0.0
2017-Jan-05 18:31N 45°27' E 036°39'0 0.0
2017-Jan-05 17:31N 45°27' E 036°39'0 0.0
2017-Jan-05 16:31N 45°27' E 036°39'0 0.0
2017-Jan-05 15:31N 45°27' E 036°39'0 0.0
2017-Jan-05 14:31N 45°27' E 036°39'0 0.0
2017-Jan-05 13:31N 45°27' E 036°39'0 0.0
2017-Jan-05 12:31N 45°27' E 036°39'0 0.0
2017-Jan-05 11:31N 45°27' E 036°39'0 0.0
2017-Jan-05 10:31N 45°27' E 036°39'0 0.0
2017-Jan-05 09:31N 45°27' E 036°39'0 0.0
2017-Jan-05 08:31N 45°27' E 036°39'0 0.0
2017-Jan-05 07:31N 45°27' E 036°39'0 0.0
2017-Jan-05 02:13N 45°27' E 036°39'0 0.0
2017-Jan-04 22:28N 45°27' E 036°39'0 0.0
2017-Jan-04 21:22N 45°27' E 036°39'0 0.0
2017-Jan-04 20:25N 45°27' E 036°39'0 0.0
2017-Jan-04 19:31N 45°27' E 036°39'0 0.0
2017-Jan-04 18:28N 45°27' E 036°39'0 0.0
2017-Jan-04 17:28N 45°27' E 036°39'0 0.0
2017-Jan-04 16:16N 45°27' E 036°39'0 0.0
2017-Jan-04 15:31N 45°27' E 036°39'0 0.0
2017-Jan-04 14:31N 45°27' E 036°39'0 0.0
2017-Jan-04 13:31N 45°27' E 036°39'0 0.0
2017-Jan-04 12:28N 45°27' E 036°39'0 0.1
2017-Jan-04 11:31N 45°27' E 036°39'0 0.0
2017-Jan-04 10:28N 45°27' E 036°39'0 0.0
2017-Jan-04 09:31N 45°27' E 036°39'0 0.1
2017-Jan-04 08:31N 45°27' E 036°39'0 0.0
2017-Jan-04 07:31N 45°27' E 036°39'0 0.0
2017-Jan-04 06:31N 45°27' E 036°39'0 0.0
2017-Jan-04 05:28N 45°27' E 036°39'0 0.0
2017-Jan-04 04:31N 45°27' E 036°39'0 0.0
2017-Jan-04 03:31N 45°27' E 036°39'0 0.0
2017-Jan-04 02:31N 45°27' E 036°39'0 0.0
2017-Jan-04 01:19N 45°27' E 036°39'0 0.0
2017-Jan-04 00:07N 45°27' E 036°39'0 0.0
2017-Jan-03 23:31N 45°27' E 036°39'0 0.0
2017-Jan-03 22:31N 45°27' E 036°39'0 0.0
2017-Jan-03 21:28N 45°27' E 036°39'0 0.0
2017-Jan-03 17:04N 45°27' E 036°39'0 0.0
2017-Jan-03 16:31N 45°27' E 036°39'0 0.0
2017-Jan-03 15:31N 45°27' E 036°39'0 0.0
2017-Jan-03 14:28N 45°27' E 036°39'0 0.0
2017-Jan-03 13:31N 45°27' E 036°39'0 0.0
2017-Jan-03 12:31N 45°27' E 036°39'0 0.0
2017-Jan-03 11:31N 45°27' E 036°39'0 0.0
2017-Jan-03 10:31N 45°27' E 036°39'0 0.0
2017-Jan-03 09:31N 45°27' E 036°39'0 0.0
2017-Jan-03 08:31N 45°27' E 036°39'0 0.0
2017-Jan-03 07:31N 45°27' E 036°39'0 0.0
2017-Jan-03 06:19N 45°27' E 036°39'0 0.0
2017-Jan-03 05:31N 45°27' E 036°39'0 0.0
2017-Jan-03 04:31N 45°27' E 036°39'0 0.0
2017-Jan-03 03:13N 45°27' E 036°39'0 0.0
2017-Jan-03 02:28N 45°27' E 036°39'0 0.0
2017-Jan-03 01:22N 45°27' E 036°39'0 0.0
2017-Jan-03 00:31N 45°27' E 036°39'0 0.1
2017-Jan-02 23:33N 45°27' E 036°39'6 5.7
2017-Jan-02 22:33N 45°31' E 036°44'  

Dump ship's entire track history